Time;durP1;ratioP1;P1;durP2;ratioP2;P2;SDS_P1;SDS_P2;PMS_P1;PMS_P2;Temp;Humidity;BMP_temperature;BMP_pressure;BME280_temperature;BME280_humidity;BME280_pressure;Samples;Min_cycle;Max_cycle;Signal;HPM_P1;HPM_P2
2022/03/25 00:00:12;;;;;;;13.85;9.75;;;6.70;73.20;;;;;;1905251;75;21023;-52
2022/03/25 00:02:42;;;;;;;14.43;9.78;;;6.70;73.20;;;;;;1905379;74;21070;-53
2022/03/25 00:05:12;;;;;;;13.40;9.55;;;6.70;73.40;;;;;;1905533;75;21074;-53
2022/03/25 00:07:41;;;;;;;14.98;10.08;;;6.80;74.10;;;;;;1905427;75;21019;-52
2022/03/25 00:10:10;;;;;;;12.98;9.78;;;6.80;73.70;;;;;;1905576;75;21093;-53
2022/03/25 00:12:40;;;;;;;12.40;8.58;;;6.80;73.50;;;;;;1905417;74;21101;-53
2022/03/25 00:15:09;;;;;;;13.68;8.15;;;6.90;73.50;;;;;;1905452;75;21077;-53
2022/03/25 00:17:39;;;;;;;11.53;9.10;;;6.90;73.60;;;;;;1905369;75;21024;-51
2022/03/25 00:20:09;;;;;;;13.45;9.35;;;6.90;73.80;;;;;;1905277;75;21020;-52
2022/03/25 00:22:38;;;;;;;11.80;9.08;;;6.90;73.70;;;;;;1905464;74;21121;-53
2022/03/25 00:25:08;;;;;;;14.10;9.03;;;7.00;73.60;;;;;;1905324;75;21085;-53
2022/03/25 00:27:38;;;;;;;14.35;9.33;;;7.00;73.70;;;;;;1905300;75;21073;-52
2022/03/25 00:30:08;;;;;;;15.65;8.78;;;7.00;73.80;;;;;;1905322;75;21027;-53
2022/03/25 00:32:38;;;;;;;15.83;9.33;;;7.00;74.00;;;;;;1905338;74;21019;-52
2022/03/25 00:35:08;;;;;;;12.68;8.85;;;6.90;73.90;;;;;;1905289;75;21097;-53
2022/03/25 00:37:37;;;;;;;14.95;8.05;;;6.90;74.20;;;;;;1905299;75;21023;-53
2022/03/25 00:40:07;;;;;;;12.88;9.15;;;6.90;74.20;;;;;;1905259;75;21088;-53
2022/03/25 00:42:37;;;;;;;19.37;9.88;;;7.00;74.50;;;;;;1905423;75;21019;-54
2022/03/25 00:45:08;;;;;;;13.90;9.40;;;7.00;74.40;;;;;;1905340;75;21016;-53
2022/03/25 00:47:38;;;;;;;14.13;9.08;;;6.90;74.20;;;;;;1905321;75;21085;-53
2022/03/25 00:50:08;;;;;;;13.20;8.58;;;6.90;74.20;;;;;;1905286;75;21085;-54
2022/03/25 00:52:37;;;;;;;14.23;9.63;;;6.90;74.20;;;;;;1905385;74;21073;-53
2022/03/25 00:55:07;;;;;;;14.63;10.00;;;6.90;74.50;;;;;;1905298;75;21020;-53
2022/03/25 00:57:37;;;;;;;17.57;12.45;;;7.00;74.70;;;;;;1905320;74;21015;-52
2022/03/25 01:00:07;;;;;;;15.75;10.55;;;6.90;74.40;;;;;;1905263;75;21011;-54
2022/03/25 01:02:38;;;;;;;13.88;9.25;;;6.90;74.20;;;;;;1905321;75;21024;-54
2022/03/25 01:05:08;;;;;;;15.03;9.80;;;7.00;74.20;;;;;;1905276;75;21078;-53
2022/03/25 01:07:37;;;;;;;18.90;10.88;;;7.00;74.20;;;;;;1905559;75;21044;-54
2022/03/25 01:10:07;;;;;;;15.23;12.13;;;6.90;74.30;;;;;;1905327;75;21093;-54
2022/03/25 01:12:36;;;;;;;18.00;11.53;;;6.90;74.20;;;;;;1905320;75;21028;-54
2022/03/25 01:15:07;;;;;;;14.15;9.85;;;6.90;74.40;;;;;;1905223;75;21020;-54
2022/03/25 01:17:37;;;;;;;19.62;11.05;;;6.80;74.50;;;;;;1905409;75;21109;-52
2022/03/25 01:20:06;;;;;;;19.32;11.83;;;6.80;74.50;;;;;;1905334;75;21136;-53
2022/03/25 01:22:36;;;;;;;19.20;12.15;;;6.80;74.70;;;;;;1905227;74;21071;-52
2022/03/25 01:25:08;;;;;;;13.25;9.63;;;6.80;74.20;;;;;;1905418;75;21021;-53
2022/03/25 01:27:37;;;;;;;14.70;12.05;;;6.80;74.30;;;;;;1905208;75;21148;-54
2022/03/25 01:30:07;;;;;;;16.37;10.63;;;6.80;74.60;;;;;;1905272;74;21008;-52
2022/03/25 01:32:39;;;;;;;18.87;9.70;;;6.80;74.40;;;;;;1905348;75;21031;-52
2022/03/25 01:35:14;;;;;;;14.55;9.58;;;6.70;74.60;;;;;;1904193;74;21077;-53
2022/03/25 01:37:40;;;;;;;14.25;10.18;;;6.70;74.90;;;;;;1903693;74;21101;-52
2022/03/25 01:40:10;;;;;;;15.18;11.12;;;6.70;74.80;;;;;;1905214;75;21047;-53
2022/03/25 01:42:41;;;;;;;17.70;10.30;;;6.70;74.40;;;;;;1905283;75;21039;-54
2022/03/25 01:45:11;;;;;;;16.20;10.03;;;6.60;74.20;;;;;;1905299;75;21019;-53
2022/03/25 01:47:42;;;;;;;14.65;10.43;;;6.50;74.50;;;;;;1905332;75;21008;-53
2022/03/25 01:50:21;;;;;;;16.75;10.78;;;6.50;75.00;;;;;;1905111;74;21121;-51
2022/03/25 01:52:52;;;;;;;14.25;9.03;;;6.50;75.20;;;;;;1905408;74;21125;-54
2022/03/25 01:55:28;;;;;;;12.18;9.70;;;6.50;75.20;;;;;;1905271;75;21018;-54
2022/03/25 01:57:59;;;;;;;16.65;10.78;;;6.50;75.10;;;;;;1904170;74;21074;-52
2022/03/25 02:00:30;;;;;;;13.35;9.13;;;6.50;74.90;;;;;;1905266;75;21019;-53
2022/03/25 02:02:58;;;;;;;12.23;9.65;;;6.40;74.90;;;;;;1905270;75;21003;-52
2022/03/25 02:05:28;;;;;;;15.28;9.68;;;6.40;75.30;;;;;;1905376;75;21031;-51
2022/03/25 02:07:57;;;;;;;14.87;8.35;;;6.30;75.40;;;;;;1905270;75;21016;-53
2022/03/25 02:10:26;;;;;;;15.23;10.03;;;6.40;75.70;;;;;;1905353;75;21080;-53
2022/03/25 02:12:56;;;;;;;15.08;9.53;;;6.40;75.50;;;;;;1905303;75;21051;-54
2022/03/25 02:15:37;;;;;;;11.95;9.35;;;6.40;75.50;;;;;;1905319;75;21093;-53
2022/03/25 02:18:10;;;;;;;19.25;11.50;;;6.40;75.40;;;;;;1903998;75;21071;-54
2022/03/25 02:20:40;;;;;;;18.37;12.10;;;6.30;75.70;;;;;;1905361;75;21133;-55
2022/03/25 02:23:11;;;;;;;17.45;10.98;;;6.30;75.60;;;;;;1910679;74;21051;-54
2022/03/25 02:25:41;;;;;;;17.17;10.72;;;6.30;75.40;;;;;;1924830;74;21023;-54
2022/03/25 02:28:11;;;;;;;17.75;10.82;;;6.20;75.50;;;;;;1924902;74;20990;-54
2022/03/25 02:30:43;;;;;;;17.10;10.82;;;6.20;75.60;;;;;;1924819;74;21139;-53
2022/03/25 02:33:14;;;;;;;16.27;9.98;;;6.10;76.10;;;;;;1924848;74;21022;-54
2022/03/25 02:35:51;;;;;;;18.25;11.33;;;6.10;76.30;;;;;;1924841;74;21069;-54
2022/03/25 02:38:23;;;;;;;17.17;9.95;;;6.10;75.90;;;;;;1924829;74;21014;-55
2022/03/25 02:40:53;;;;;;;15.08;9.43;;;6.20;76.10;;;;;;1924860;74;21077;-54
2022/03/25 02:43:24;;;;;;;16.48;10.85;;;6.20;76.40;;;;;;1924356;74;21046;-54
2022/03/25 02:45:55;;;;;;;18.25;11.35;;;6.20;76.10;;;;;;1919448;74;21356;-54
2022/03/25 02:48:24;;;;;;;16.30;10.75;;;6.20;76.20;;;;;;1924769;74;20998;-55
2022/03/25 02:50:54;;;;;;;15.63;11.12;;;6.30;76.50;;;;;;1924739;74;21081;-54
2022/03/25 02:53:23;;;;;;;21.37;11.50;;;6.30;76.30;;;;;;1924773;74;21030;-52
2022/03/25 02:55:53;;;;;;;14.75;10.48;;;6.30;76.40;;;;;;1924924;74;21023;-53
2022/03/25 02:58:22;;;;;;;14.28;10.08;;;6.30;76.40;;;;;;1924868;74;21084;-54
2022/03/25 03:00:51;;;;;;;16.57;10.63;;;6.40;76.60;;;;;;1924749;74;21069;-52
2022/03/25 03:03:21;;;;;;;16.32;11.50;;;6.40;76.30;;;;;;1924740;74;21076;-54
2022/03/25 03:05:50;;;;;;;16.57;10.75;;;6.40;76.30;;;;;;1924881;74;20994;-53
2022/03/25 03:08:20;;;;;;;17.02;9.98;;;6.40;76.50;;;;;;1924790;74;21072;-53
2022/03/25 03:10:49;;;;;;;14.18;10.05;;;6.40;76.40;;;;;;1924933;74;21092;-52
2022/03/25 03:13:19;;;;;;;13.62;9.60;;;6.40;77.00;;;;;;1924978;74;21031;-53
2022/03/25 03:15:49;;;;;;;18.12;9.98;;;6.30;76.90;;;;;;1924972;74;21042;-52
2022/03/25 03:18:20;;;;;;;14.23;9.90;;;6.20;77.20;;;;;;1924828;74;21027;-52
2022/03/25 03:20:49;;;;;;;18.32;11.12;;;6.20;77.10;;;;;;1924962;74;21026;-53
2022/03/25 03:23:18;;;;;;;22.27;11.60;;;6.10;77.80;;;;;;1924784;74;21026;-53
2022/03/25 03:25:48;;;;;;;18.73;11.50;;;6.00;77.40;;;;;;1924893;74;21022;-53
2022/03/25 03:28:18;;;;;;;17.75;11.05;;;6.00;78.00;;;;;;1924789;74;21076;-53
2022/03/25 03:30:47;;;;;;;15.95;11.40;;;6.00;77.80;;;;;;1924668;74;21023;-54
2022/03/25 03:33:16;;;;;;;15.83;10.88;;;6.00;77.80;;;;;;1924802;74;21018;-53
2022/03/25 03:35:46;;;;;;;18.90;11.93;;;6.10;77.70;;;;;;1924767;74;21082;-52
2022/03/25 03:38:15;;;;;;;22.37;13.60;;;6.10;78.10;;;;;;1924831;74;21082;-54
2022/03/25 03:40:44;;;;;;;18.00;13.05;;;6.20;78.10;;;;;;1924828;74;21394;-53
2022/03/25 03:43:13;;;;;;;19.87;13.62;;;6.10;77.70;;;;;;1924674;74;21108;-53
2022/03/25 03:45:43;;;;;;;21.00;13.25;;;6.10;78.00;;;;;;1924857;74;21023;-52
2022/03/25 03:48:12;;;;;;;17.82;12.90;;;6.00;78.20;;;;;;1924830;74;21047;-52
2022/03/25 03:50:41;;;;;;;20.90;13.65;;;5.90;77.90;;;;;;1924737;74;21019;-53
2022/03/25 03:53:11;;;;;;;19.32;12.50;;;5.80;78.30;;;;;;1924705;74;21096;-53
2022/03/25 03:55:41;;;;;;;27.22;15.15;;;5.80;78.30;;;;;;1924722;74;21019;-54
2022/03/25 03:58:10;;;;;;;21.15;13.10;;;5.70;78.80;;;;;;1924650;74;21015;-52
2022/03/25 04:00:40;;;;;;;20.20;13.78;;;5.70;78.40;;;;;;1924812;74;21014;-53
2022/03/25 04:03:10;;;;;;;21.93;12.58;;;5.60;78.80;;;;;;1924759;74;21018;-52
2022/03/25 04:05:39;;;;;;;18.70;12.93;;;5.60;78.60;;;;;;1924690;74;21127;-53
2022/03/25 04:08:09;;;;;;;20.85;13.10;;;5.60;78.90;;;;;;1924669;74;21018;-53
2022/03/25 04:10:38;;;;;;;22.30;12.43;;;5.60;78.90;;;;;;1924717;74;21022;-52
2022/03/25 04:13:07;;;;;;;19.70;13.35;;;5.60;79.20;;;;;;1924947;74;20999;-54
2022/03/25 04:15:37;;;;;;;20.12;12.90;;;5.60;79.40;;;;;;1924833;74;21127;-50
2022/03/25 04:18:06;;;;;;;24.43;13.70;;;5.50;79.30;;;;;;1924766;74;21058;-53
2022/03/25 04:20:36;;;;;;;19.67;13.95;;;5.50;79.00;;;;;;1924727;74;21175;-52
2022/03/25 04:23:05;;;;;;;25.20;14.90;;;5.40;79.30;;;;;;1924773;74;21019;-54
2022/03/25 04:25:35;;;;;;;23.50;15.25;;;5.40;79.30;;;;;;1910328;74;21047;-53
2022/03/25 04:28:05;;;;;;;25.88;15.15;;;5.40;79.20;;;;;;1905240;75;21016;-52
2022/03/25 04:30:37;;;;;;;26.05;13.05;;;5.40;79.70;;;;;;1905364;75;21000;-52
2022/03/25 04:33:06;;;;;;;23.40;13.90;;;5.40;79.90;;;;;;1905379;75;21055;-53
2022/03/25 04:35:35;;;;;;;21.15;13.75;;;5.30;80.00;;;;;;1905440;74;21015;-52
2022/03/25 04:38:05;;;;;;;24.20;15.60;;;5.30;79.70;;;;;;1905392;75;21000;-54
2022/03/25 04:40:35;;;;;;;23.85;15.53;;;5.20;80.30;;;;;;1905455;75;21078;-54
2022/03/25 04:43:05;;;;;;;23.47;14.23;;;5.20;81.20;;;;;;1905281;74;21015;-54
2022/03/25 04:45:35;;;;;;;25.08;15.50;;;5.20;80.90;;;;;;1905317;75;21094;-53
2022/03/25 04:48:05;;;;;;;20.23;14.45;;;5.20;81.00;;;;;;1905238;75;21085;-54
2022/03/25 04:50:35;;;;;;;23.20;15.15;;;5.20;80.80;;;;;;1905320;75;21089;-54
2022/03/25 04:53:04;;;;;;;21.77;14.78;;;5.20;81.00;;;;;;1905285;74;21047;-52
2022/03/25 04:55:34;;;;;;;24.72;14.80;;;5.20;81.30;;;;;;1905452;75;21036;-54
2022/03/25 04:58:03;;;;;;;24.85;14.65;;;5.20;81.30;;;;;;1905268;75;21015;-54
2022/03/25 05:00:34;;;;;;;28.20;14.58;;;5.30;81.10;;;;;;1905444;75;21058;-54
2022/03/25 05:03:03;;;;;;;19.77;13.85;;;5.30;81.10;;;;;;1905457;75;21466;-53
2022/03/25 05:05:33;;;;;;;23.65;14.75;;;5.30;82.00;;;;;;1905429;75;21077;-55
2022/03/25 05:08:03;;;;;;;25.40;16.12;;;5.30;81.30;;;;;;1905264;75;21152;-54
2022/03/25 05:10:33;;;;;;;20.32;12.03;;;5.30;81.10;;;;;;1905394;74;21059;-54
2022/03/25 05:13:03;;;;;;;22.13;13.08;;;5.30;82.30;;;;;;1905415;75;21031;-53
2022/03/25 05:15:32;;;;;;;20.90;15.00;;;5.30;81.40;;;;;;1905399;75;21160;-54
2022/03/25 05:18:02;;;;;;;29.35;15.93;;;5.30;82.10;;;;;;1905350;75;21011;-54
2022/03/25 05:20:31;;;;;;;27.00;16.42;;;5.30;81.30;;;;;;1905281;75;21015;-54
2022/03/25 05:23:01;;;;;;;21.75;14.60;;;5.40;81.40;;;;;;1905315;75;21023;-54
2022/03/25 05:25:30;;;;;;;24.32;16.12;;;5.40;81.10;;;;;;1905452;75;21043;-55
2022/03/25 05:28:00;;;;;;;27.30;15.20;;;5.40;81.30;;;;;;1905308;75;21387;-55
2022/03/25 05:30:31;;;;;;;25.72;15.70;;;5.40;81.70;;;;;;1905489;75;21055;-54
2022/03/25 05:33:02;;;;;;;21.07;13.28;;;5.50;81.60;;;;;;1904507;74;21093;-55
2022/03/25 05:35:32;;;;;;;24.72;14.83;;;5.50;81.20;;;;;;1905375;75;21075;-55
2022/03/25 05:38:01;;;;;;;19.48;13.43;;;5.60;81.20;;;;;;1905441;75;21019;-54
2022/03/25 05:40:31;;;;;;;28.47;17.82;;;5.60;81.20;;;;;;1905406;75;21015;-55
2022/03/25 05:43:01;;;;;;;24.90;14.33;;;5.70;81.30;;;;;;1905399;75;20991;-54
2022/03/25 05:45:30;;;;;;;23.18;14.93;;;5.70;81.80;;;;;;1905339;75;21015;-55
2022/03/25 05:47:59;;;;;;;29.63;17.00;;;5.60;82.30;;;;;;1905299;75;21016;-54
2022/03/25 05:50:29;;;;;;;23.98;17.65;;;5.60;81.10;;;;;;1905198;75;21118;-53
2022/03/25 05:52:58;;;;;;;24.57;15.15;;;5.50;82.10;;;;;;1905234;75;20999;-54
2022/03/25 05:55:28;;;;;;;23.90;13.55;;;5.50;81.80;;;;;;1905346;75;21077;-55
2022/03/25 05:57:57;;;;;;;16.27;10.68;;;5.50;81.50;;;;;;1905326;75;21117;-53
2022/03/25 06:00:27;;;;;;;30.72;21.85;;;5.60;82.40;;;;;;1905451;75;21062;-53
2022/03/25 06:02:56;;;;;;;23.80;13.88;;;5.60;81.60;;;;;;1905242;75;21043;-54
2022/03/25 06:05:26;;;;;;;16.48;10.93;;;5.70;82.10;;;;;;1905326;75;21023;-53
2022/03/25 06:07:55;;;;;;;23.77;13.28;;;5.70;81.60;;;;;;1905137;75;21023;-54
2022/03/25 06:10:25;;;;;;;15.78;10.40;;;5.70;81.60;;;;;;1905228;74;21035;-53
2022/03/25 06:12:54;;;;;;;17.62;10.18;;;5.80;82.20;;;;;;1905486;75;21019;-54
2022/03/25 06:15:24;;;;;;;20.85;12.50;;;5.80;81.20;;;;;;1905295;75;21024;-53
2022/03/25 06:17:53;;;;;;;17.37;11.22;;;5.80;81.40;;;;;;1905354;74;21027;-54
2022/03/25 06:20:23;;;;;;;17.52;12.25;;;5.80;82.80;;;;;;1905404;75;21077;-55
2022/03/25 06:22:53;;;;;;;17.00;10.50;;;5.80;82.10;;;;;;1905343;75;21097;-55
2022/03/25 06:25:22;;;;;;;16.32;10.48;;;5.80;82.00;;;;;;1905415;75;21247;-54
2022/03/25 06:27:57;;;;;;;16.42;10.98;;;5.70;81.70;;;;;;1905389;75;21085;-55
2022/03/25 06:30:34;;;;;;;13.22;9.63;;;5.70;81.70;;;;;;1905529;75;21074;-54
2022/03/25 06:33:07;;;;;;;18.27;11.63;;;5.80;81.80;;;;;;1905490;74;21007;-55
2022/03/25 06:35:38;;;;;;;18.90;11.97;;;5.80;82.50;;;;;;1905451;75;21059;-53
2022/03/25 06:38:09;;;;;;;14.60;9.93;;;5.80;82.00;;;;;;1905464;75;21019;-54
2022/03/25 06:40:39;;;;;;;16.48;10.68;;;5.80;82.50;;;;;;1905518;75;21087;-54
2022/03/25 06:43:08;;;;;;;15.43;10.55;;;5.80;81.80;;;;;;1905410;75;21019;-54
2022/03/25 06:45:38;;;;;;;23.57;12.18;;;5.90;82.20;;;;;;1905445;75;21051;-53
2022/03/25 06:48:07;;;;;;;28.23;19.82;;;5.90;83.00;;;;;;1905275;75;21055;-53
2022/03/25 06:50:37;;;;;;;17.95;11.22;;;6.00;81.90;;;;;;1905338;75;21051;-52
2022/03/25 06:53:07;;;;;;;16.27;10.10;;;6.10;82.10;;;;;;1905329;75;20995;-53
2022/03/25 06:55:37;;;;;;;10.48;7.60;;;6.10;82.00;;;;;;1905428;75;21059;-52
2022/03/25 06:58:09;;;;;;;16.02;9.93;;;6.10;82.30;;;;;;1905339;75;21063;-53
2022/03/25 07:00:38;;;;;;;13.55;9.20;;;6.00;81.50;;;;;;1905364;75;21011;-53
2022/03/25 07:03:08;;;;;;;12.23;8.00;;;6.00;82.00;;;;;;1905501;75;21456;-53
2022/03/25 07:05:38;;;;;;;13.88;9.10;;;6.00;81.70;;;;;;1905460;75;21097;-53
2022/03/25 07:08:09;;;;;;;15.43;10.13;;;6.10;81.70;;;;;;1905266;75;21090;-52
2022/03/25 07:10:39;;;;;;;13.98;8.65;;;6.20;81.80;;;;;;1905294;75;21023;-53
2022/03/25 07:13:09;;;;;;;14.50;10.03;;;6.30;81.90;;;;;;1905323;75;21023;-54
2022/03/25 07:15:38;;;;;;;14.53;9.50;;;6.30;82.00;;;;;;1905275;75;21088;-53
2022/03/25 07:18:08;;;;;;;12.80;9.30;;;6.50;81.40;;;;;;1905248;75;20999;-53
2022/03/25 07:20:37;;;;;;;12.78;8.35;;;6.50;81.50;;;;;;1905337;75;21023;-53
2022/03/25 07:23:07;;;;;;;14.38;9.48;;;6.60;81.40;;;;;;1905316;75;21063;-52
2022/03/25 07:25:37;;;;;;;11.30;7.70;;;6.70;81.30;;;;;;1905067;75;21020;-48
2022/03/25 07:28:07;;;;;;;12.25;8.45;;;6.80;81.20;;;;;;1903643;75;21365;-52
2022/03/25 07:30:37;;;;;;;11.45;7.17;;;6.80;81.00;;;;;;1895272;74;21093;-47
2022/03/25 12:33:37;;;;;;;14.80;12.03;;;8.20;78.60;;;;;;1934312;73;27951;-48
2022/03/25 12:36:09;;;;;;;14.25;10.43;;;8.80;81.20;;;;;;1903645;74;21109;-48
2022/03/25 12:38:43;;;;;;;13.62;10.23;;;8.80;80.30;;;;;;1918202;74;21472;-48
2022/03/25 12:41:12;;;;;;;14.58;10.48;;;8.70;80.20;;;;;;1918263;75;20991;-48
2022/03/25 12:43:41;;;;;;;15.03;10.93;;;8.70;80.10;;;;;;1904890;74;21038;-48
2022/03/25 12:46:12;;;;;;;13.15;10.78;;;8.70;79.90;;;;;;1920904;74;21037;-49
2022/03/25 12:48:41;;;;;;;17.17;10.72;;;8.70;80.00;;;;;;1912705;74;21045;-48
2022/03/25 12:51:11;;;;;;;15.30;11.85;;;8.70;80.00;;;;;;1915774;74;21053;-52
2022/03/25 12:53:43;;;;;;;14.63;10.48;;;8.70;80.10;;;;;;1912576;74;21096;-49
2022/03/25 12:56:13;;;;;;;20.10;14.25;;;8.60;79.80;;;;;;1917982;75;21014;-50
2022/03/25 12:58:43;;;;;;;17.20;13.50;;;8.60;79.90;;;;;;1909439;74;21045;-49
2022/03/25 13:01:17;;;;;;;19.80;13.65;;;8.50;80.20;;;;;;1926982;74;21057;-50
2022/03/25 13:03:47;;;;;;;25.80;18.55;;;8.50;79.70;;;;;;1914509;74;21046;-49
2022/03/25 13:06:19;;;;;;;15.32;11.63;;;8.40;79.80;;;;;;1920015;74;21042;-50
2022/03/25 13:08:49;;;;;;;15.95;12.20;;;8.40;80.00;;;;;;1917080;74;21097;-49
2022/03/25 13:11:19;;;;;;;14.00;10.30;;;8.40;80.00;;;;;;1906787;74;21101;-48
2022/03/25 13:13:49;;;;;;;11.68;9.53;;;8.40;79.90;;;;;;1917935;74;21057;-50
2022/03/25 13:16:18;;;;;;;14.55;10.38;;;8.30;80.60;;;;;;1918138;74;21163;-49
2022/03/25 13:18:48;;;;;;;18.57;13.48;;;8.30;80.10;;;;;;1905657;75;21364;-49
2022/03/25 13:21:17;;;;;;;12.58;10.13;;;8.30;80.20;;;;;;1905626;75;21042;-49
2022/03/25 13:23:46;;;;;;;12.68;11.03;;;8.30;80.10;;;;;;1905779;75;21088;-49
2022/03/25 13:26:16;;;;;;;12.70;9.58;;;8.30;80.20;;;;;;1905635;75;21031;-49
2022/03/25 13:28:46;;;;;;;15.60;10.88;;;8.20;80.00;;;;;;1905802;75;21027;-50
2022/03/25 13:31:15;;;;;;;10.45;8.05;;;8.20;79.90;;;;;;1905726;75;21026;-50
2022/03/25 13:33:47;;;;;;;11.43;7.60;;;8.20;80.10;;;;;;1905149;75;21007;-50
2022/03/25 13:36:20;;;;;;;13.93;8.85;;;8.10;80.00;;;;;;1905063;75;21023;-50
2022/03/25 13:38:54;;;;;;;14.93;8.78;;;8.00;80.20;;;;;;1904764;75;21066;-49
2022/03/25 13:41:22;;;;;;;17.87;11.38;;;8.00;80.70;;;;;;1902789;75;21093;-49
2022/03/25 13:43:54;;;;;;;13.55;8.38;;;8.00;80.80;;;;;;1904004;75;21553;-50
2022/03/25 13:46:29;;;;;;;14.33;10.50;;;8.00;80.60;;;;;;1903496;75;21054;-49
2022/03/25 13:49:00;;;;;;;14.90;9.45;;;8.00;80.80;;;;;;1905071;75;21030;-48
2022/03/25 13:51:31;;;;;;;15.30;9.73;;;8.00;81.00;;;;;;1926317;74;21144;-48
2022/03/25 13:54:06;;;;;;;13.22;9.60;;;8.00;80.90;;;;;;1910402;74;21022;-49
2022/03/25 13:56:41;;;;;;;12.58;8.05;;;8.00;80.70;;;;;;1904023;75;21042;-48
2022/03/25 13:59:12;;;;;;;10.78;8.70;;;8.10;80.70;;;;;;1901910;75;21476;-49
2022/03/25 14:01:44;;;;;;;18.95;13.38;;;8.10;80.30;;;;;;1904947;75;21465;-49
2022/03/25 14:04:15;;;;;;;20.95;16.17;;;8.10;80.70;;;;;;1905019;75;21096;-49
2022/03/25 14:06:49;;;;;;;14.07;10.08;;;8.00;80.80;;;;;;1904641;75;21028;-49
2022/03/25 14:09:36;;;;;;;17.67;13.15;;;8.00;80.60;;;;;;1905109;75;21152;-49
2022/03/25 14:12:22;;;;;;;15.83;10.65;;;8.00;80.70;;;;;;1905074;75;21124;-49
2022/03/25 14:15:08;;;;;;;15.25;12.95;;;8.00;80.60;;;;;;1905126;75;21325;-51
2022/03/25 14:17:39;;;;;;;12.85;9.63;;;8.00;81.50;;;;;;1904996;75;21019;-51
2022/03/25 14:20:11;;;;;;;11.93;8.48;;;8.00;81.40;;;;;;1905078;75;21088;-50
2022/03/25 14:22:42;;;;;;;12.33;9.00;;;8.00;81.70;;;;;;1905111;75;21023;-49
2022/03/25 14:25:13;;;;;;;19.75;15.70;;;8.00;81.30;;;;;;1905085;75;20998;-49
2022/03/25 14:27:47;;;;;;;25.43;17.87;;;8.00;82.30;;;;;;1905162;75;21026;-49
2022/03/25 14:30:16;;;;;;;28.60;21.45;;;8.00;81.70;;;;;;1905056;75;21105;-49
2022/03/25 14:32:46;;;;;;;21.57;14.87;;;7.90;81.60;;;;;;1904986;75;21027;-49
2022/03/25 14:35:17;;;;;;;23.40;16.12;;;7.90;82.60;;;;;;1905081;75;21081;-49
2022/03/25 14:37:47;;;;;;;22.85;16.23;;;7.90;82.20;;;;;;1905121;75;21507;-49
2022/03/25 14:40:16;;;;;;;18.55;13.60;;;7.90;81.80;;;;;;1905018;75;21175;-49
2022/03/25 14:42:45;;;;;;;19.02;12.65;;;7.90;81.90;;;;;;1904938;75;21023;-49
2022/03/25 14:45:15;;;;;;;14.38;10.78;;;7.90;82.30;;;;;;1905037;75;21007;-48
2022/03/25 14:47:45;;;;;;;19.10;12.07;;;7.90;83.20;;;;;;1905094;75;21022;-49
2022/03/25 14:50:14;;;;;;;17.32;11.08;;;7.90;83.20;;;;;;1905085;75;21026;-48
2022/03/25 14:52:44;;;;;;;16.87;10.70;;;7.80;82.80;;;;;;1905094;75;21027;-48
2022/03/25 14:55:19;;;;;;;17.15;10.78;;;7.70;83.10;;;;;;1905133;75;21148;-50
2022/03/25 14:57:44;;;;;;;18.98;12.78;;;7.70;83.10;;;;;;1904295;75;21051;-48
2022/03/25 15:00:14;;;;;;;23.00;12.45;;;7.70;83.90;;;;;;1905147;75;21030;-50
2022/03/25 15:02:43;;;;;;;13.78;9.43;;;7.70;83.80;;;;;;1905068;75;21023;-49
2022/03/25 15:05:13;;;;;;;12.15;6.97;;;7.70;83.80;;;;;;1905226;75;21041;-49
2022/03/25 15:07:43;;;;;;;11.57;7.37;;;7.60;83.40;;;;;;1905068;75;21180;-48
2022/03/25 15:10:13;;;;;;;11.53;7.45;;;7.60;83.10;;;;;;1905237;75;21084;-49
2022/03/25 15:12:44;;;;;;;10.55;7.47;;;7.50;83.10;;;;;;1905061;75;21046;-49
2022/03/25 15:15:13;;;;;;;11.78;7.87;;;7.50;83.20;;;;;;1905247;75;21038;-50
2022/03/25 15:17:45;;;;;;;9.60;7.12;;;7.50;83.30;;;;;;1905085;75;21006;-51
2022/03/25 15:20:14;;;;;;;9.45;6.50;;;7.40;83.50;;;;;;1905140;75;21542;-49
2022/03/25 15:22:44;;;;;;;11.65;6.83;;;7.40;83.60;;;;;;1905187;75;21085;-48
2022/03/25 15:25:13;;;;;;;9.30;7.28;;;7.40;83.60;;;;;;1905113;75;21039;-50
2022/03/25 15:27:43;;;;;;;10.10;6.90;;;7.30;83.30;;;;;;1905141;75;21093;-49
2022/03/25 15:35:47;;;;;;;9.95;7.55;;;7.30;83.80;;;;;;1909198;74;21113;-49
2022/03/25 15:38:16;;;;;;;11.53;7.50;;;7.20;84.50;;;;;;1905223;75;21035;-49
2022/03/25 15:40:47;;;;;;;13.72;7.90;;;7.20;85.10;;;;;;1905030;75;21046;-49
2022/03/25 15:43:16;;;;;;;11.50;7.47;;;7.10;84.40;;;;;;1905078;75;21093;-49
2022/03/25 15:45:45;;;;;;;16.75;8.60;;;7.10;84.90;;;;;;1904977;75;21097;-49
2022/03/25 15:48:15;;;;;;;13.03;9.18;;;7.10;85.60;;;;;;1904983;75;21026;-48
2022/03/25 15:50:46;;;;;;;13.00;9.40;;;7.00;85.80;;;;;;1905095;75;21027;-49
2022/03/25 15:53:15;;;;;;;17.50;10.75;;;7.00;85.40;;;;;;1904938;75;21015;-49
2022/03/25 15:55:45;;;;;;;16.35;11.25;;;7.00;85.20;;;;;;1905092;75;21035;-48
2022/03/25 15:58:14;;;;;;;19.55;11.57;;;7.00;85.50;;;;;;1905049;75;21007;-49
2022/03/25 16:00:44;;;;;;;18.55;11.28;;;7.00;86.10;;;;;;1904980;75;21096;-50
2022/03/25 16:03:14;;;;;;;17.02;11.93;;;7.00;86.10;;;;;;1905090;75;21023;-48
2022/03/25 16:05:48;;;;;;;18.25;12.53;;;7.00;86.40;;;;;;1904950;75;21059;-49
2022/03/25 16:08:19;;;;;;;24.50;14.30;;;7.00;85.90;;;;;;1904561;75;21035;-49
2022/03/25 16:10:49;;;;;;;21.65;13.70;;;7.00;86.50;;;;;;1904959;75;21097;-49
2022/03/25 16:13:21;;;;;;;25.52;15.40;;;7.00;85.70;;;;;;1905043;75;21026;-49
2022/03/25 16:15:50;;;;;;;20.12;14.40;;;7.00;85.90;;;;;;1904961;75;21093;-48
2022/03/25 16:18:19;;;;;;;22.35;14.07;;;7.00;85.40;;;;;;1905071;75;21046;-49
2022/03/25 16:20:55;;;;;;;21.35;14.03;;;7.00;85.50;;;;;;1905022;75;21031;-49
2022/03/25 16:23:20;;;;;;;18.98;13.13;;;7.00;85.70;;;;;;1904093;75;21070;-50
2022/03/25 16:25:49;;;;;;;21.20;14.18;;;7.00;85.40;;;;;;1905045;75;21026;-50
2022/03/25 16:28:18;;;;;;;23.52;14.70;;;7.10;85.20;;;;;;1905100;75;21092;-49
2022/03/25 16:30:47;;;;;;;24.52;13.93;;;7.10;85.70;;;;;;1904926;75;21003;-49
2022/03/25 16:33:18;;;;;;;20.00;11.35;;;7.10;86.20;;;;;;1905027;75;21464;-48
2022/03/25 16:35:47;;;;;;;22.30;16.23;;;7.10;86.10;;;;;;1904992;75;21030;-48
2022/03/25 16:38:17;;;;;;;28.57;16.97;;;7.00;85.90;;;;;;1905069;75;21022;-48
2022/03/25 16:40:47;;;;;;;30.65;17.65;;;7.00;86.40;;;;;;1905080;75;21030;-48
2022/03/25 16:43:17;;;;;;;21.23;15.53;;;7.00;86.50;;;;;;1904889;75;21026;-49
2022/03/25 16:45:48;;;;;;;29.60;16.77;;;7.00;86.60;;;;;;1904943;75;21085;-48
2022/03/25 16:48:18;;;;;;;28.05;17.20;;;6.90;86.40;;;;;;1905096;75;21048;-48
2022/03/25 16:50:47;;;;;;;31.82;19.37;;;6.90;86.80;;;;;;1904939;75;21026;-48
2022/03/25 16:53:16;;;;;;;29.80;19.50;;;6.90;86.90;;;;;;1904926;75;21050;-48
2022/03/25 16:55:46;;;;;;;30.60;19.40;;;6.90;86.70;;;;;;1904866;75;21030;-49
2022/03/25 16:58:15;;;;;;;27.77;18.12;;;6.90;86.90;;;;;;1905038;75;21085;-49
2022/03/25 17:00:44;;;;;;;28.55;18.05;;;6.80;86.40;;;;;;1904926;75;21511;-48
2022/03/25 17:03:13;;;;;;;31.40;20.45;;;6.80;86.40;;;;;;1905015;75;21030;-48
2022/03/25 17:05:43;;;;;;;27.73;18.10;;;6.80;86.70;;;;;;1904730;75;21058;-50
2022/03/25 17:08:12;;;;;;;31.90;18.65;;;6.80;86.60;;;;;;1904166;75;21035;-50
2022/03/25 17:10:41;;;;;;;32.63;20.50;;;6.80;86.40;;;;;;1905011;75;21089;-48
2022/03/25 17:13:11;;;;;;;28.60;18.92;;;6.80;85.80;;;;;;1904990;75;21140;-49
2022/03/25 17:15:40;;;;;;;42.33;25.00;;;6.90;86.80;;;;;;1905108;75;21066;-50
2022/03/25 17:18:10;;;;;;;31.75;20.62;;;6.90;87.00;;;;;;1905076;75;21034;-48
2022/03/25 17:20:39;;;;;;;34.15;18.70;;;6.80;86.20;;;;;;1904506;75;21051;-49
2022/03/25 17:23:08;;;;;;;28.98;18.42;;;6.80;86.60;;;;;;1904825;75;21092;-51
2022/03/25 17:25:39;;;;;;;29.75;17.98;;;6.80;86.00;;;;;;1905049;75;21007;-49
2022/03/25 17:28:09;;;;;;;34.03;20.57;;;6.90;86.50;;;;;;1905088;75;21405;-49
2022/03/25 17:30:38;;;;;;;29.72;20.12;;;6.80;86.20;;;;;;1905035;75;21046;-49
2022/03/25 17:33:08;;;;;;;24.67;17.10;;;6.80;86.60;;;;;;1905129;75;21094;-48
2022/03/25 17:35:38;;;;;;;30.68;18.02;;;6.80;86.50;;;;;;1905013;75;21120;-49
2022/03/25 17:38:08;;;;;;;31.57;19.02;;;6.80;86.00;;;;;;1905144;75;21093;-49
2022/03/25 17:40:37;;;;;;;32.73;19.80;;;6.80;86.00;;;;;;1905037;75;21015;-49
2022/03/25 17:43:07;;;;;;;29.37;18.37;;;6.80;86.20;;;;;;1905120;75;21022;-50
2022/03/25 17:45:36;;;;;;;30.45;19.52;;;6.80;86.00;;;;;;1905147;75;21449;-48
2022/03/25 17:48:06;;;;;;;29.20;17.57;;;6.80;86.00;;;;;;1905007;75;21046;-48
2022/03/25 17:50:35;;;;;;;26.97;18.20;;;6.80;86.20;;;;;;1905151;75;21027;-50
2022/03/25 17:53:05;;;;;;;27.90;17.20;;;6.80;86.00;;;;;;1905145;75;21476;-49
2022/03/25 17:55:34;;;;;;;28.15;17.48;;;6.80;86.00;;;;;;1905064;75;21007;-49
2022/03/25 17:58:03;;;;;;;26.95;17.32;;;6.80;86.50;;;;;;1905176;75;21006;-49
2022/03/25 18:00:33;;;;;;;23.47;16.07;;;6.80;86.00;;;;;;1905108;75;21030;-48